Frank T. Stegbauer — WDE5944 — position and weather

sailwx.info

Track history (hours):
 
Tides and Currents Weather Stations Pressure Air Temp Water Temp Dewpoint Dewpoint Depression Visibility Wind Speed Wind Dir Waves Ship Positions

Frank T. Stegbauer

Owner: SOUTHERN TOWING COMPANY LLC., Memphis, TN. More information available from US FCC via Universal Licensing System and Coast Guard Vessel Documentation Center.

Last reported at 2018-May-20 13:16 UTC. Time now 2018-May-22 19:45 UTC.
Position N 31°60' W 091°05'.

Length 35 m; draft 3 m.

Type: Tug. MMSI: 367373640.

Date/timePositionNaut miles runAvg speedWind from/ knotsBaromVisibWave heightAir tempDewpointWater temp
2018-May-20 13:16N 31°60' W 091°05'411.6
2018-May-20 12:56N 32°03' W 091°03'510.8
2018-May-20 12:30N 32°07' W 091°06'5 9.3
2018-May-20 12:00N 32°07' W 091°01'611.3
2018-May-20 11:30N 32°13' W 090°59'510.8
2018-May-20 11:00N 32°17' W 090°56'3 6.8
2018-May-20 10:30N 32°21' W 090°56'4 7.8
2018-May-20 10:00N 32°24' W 090°59'510.1
2018-May-20 09:30N 32°27' W 091°04'5 9.9
2018-May-20 09:00N 32°31' W 091°06'  
2018-May-11 03:41N 32°50' W 091°09'4 5.2
2018-May-11 03:00N 32°46' W 091°09'7 2.6
2018-May-11 00:31N 32°40' W 091°08'2 6.3
2018-May-11 00:12N 32°38' W 091°09'2 6.6
2018-May-10 23:55N 32°36' W 091°09'2 5.4
2018-May-10 23:30N 32°35' W 091°07'2 4.9
2018-May-10 23:00N 32°32' W 091°06'3 5.1
2018-May-10 22:30N 32°30' W 091°07'2 4.8
2018-May-10 22:00N 32°28' W 091°06'3 5.3
2018-May-10 21:30N 32°26' W 091°03'3 5.2
2018-May-10 21:00N 32°25' W 091°00'2 4.6
2018-May-10 20:30N 32°23' W 090°60'2 4.0
2018-May-10 20:00N 32°21' W 090°59'3 5.3
2018-May-10 19:30N 32°21' W 090°56'2 4.5
2018-May-10 19:00N 32°20' W 090°54'2 4.6
2018-May-10 18:30N 32°18' W 090°56'1 2.7
2018-May-10 18:00N 32°17' W 090°57'3 5.0
2018-May-10 17:30N 32°15' W 090°59'3 5.3
2018-May-10 17:00N 32°12' W 090°59'2 5.0
2018-May-10 16:30N 32°10' W 090°60'3 4.9
2018-May-10 15:55N 32°07' W 091°01'2 4.1
2018-May-10 15:30N 32°07' W 091°03'3 5.2
2018-May-10 14:56N 32°07' W 091°07'  
Track history (hours):
 
Tides and Currents Weather Stations Pressure Air Temp Water Temp Dewpoint Dewpoint Depression Visibility Wind Speed Wind Dir Waves Ship Positions

Frank T. Stegbauer

Owner: SOUTHERN TOWING COMPANY LLC., Memphis, TN. More information available from US FCC via Universal Licensing System and Coast Guard Vessel Documentation Center.

Last reported at 2018-May-20 13:16 UTC. Time now 2018-May-22 19:45 UTC.
Position N 31°60' W 091°05'.

Length 35 m; draft 3 m.

Type: Tug. MMSI: 367373640.

Date/timePositionNaut miles runAvg speedWind from/ knotsBaromVisibWave heightAir tempDewpointWater temp
2018-May-20 13:16N 31°60' W 091°05'411.6
2018-May-20 12:56N 32°03' W 091°03'510.8
2018-May-20 12:30N 32°07' W 091°06'5 9.3
2018-May-20 12:00N 32°07' W 091°01'611.3
2018-May-20 11:30N 32°13' W 090°59'510.8
2018-May-20 11:00N 32°17' W 090°56'3 6.8
2018-May-20 10:30N 32°21' W 090°56'4 7.8
2018-May-20 10:00N 32°24' W 090°59'510.1
2018-May-20 09:30N 32°27' W 091°04'5 9.9
2018-May-20 09:00N 32°31' W 091°06'  
2018-May-11 03:41N 32°50' W 091°09'4 5.2
2018-May-11 03:00N 32°46' W 091°09'7 2.6
2018-May-11 00:31N 32°40' W 091°08'2 6.3
2018-May-11 00:12N 32°38' W 091°09'2 6.6
2018-May-10 23:55N 32°36' W 091°09'2 5.4
2018-May-10 23:30N 32°35' W 091°07'2 4.9
2018-May-10 23:00N 32°32' W 091°06'3 5.1
2018-May-10 22:30N 32°30' W 091°07'2 4.8
2018-May-10 22:00N 32°28' W 091°06'3 5.3
2018-May-10 21:30N 32°26' W 091°03'3 5.2
2018-May-10 21:00N 32°25' W 091°00'2 4.6
2018-May-10 20:30N 32°23' W 090°60'2 4.0
2018-May-10 20:00N 32°21' W 090°59'3 5.3
2018-May-10 19:30N 32°21' W 090°56'2 4.5
2018-May-10 19:00N 32°20' W 090°54'2 4.6
2018-May-10 18:30N 32°18' W 090°56'1 2.7
2018-May-10 18:00N 32°17' W 090°57'3 5.0
2018-May-10 17:30N 32°15' W 090°59'3 5.3
2018-May-10 17:00N 32°12' W 090°59'2 5.0
2018-May-10 16:30N 32°10' W 090°60'3 4.9
2018-May-10 15:55N 32°07' W 091°01'2 4.1
2018-May-10 15:30N 32°07' W 091°03'3 5.2
2018-May-10 14:56N 32°07' W 091°07'  

Dump ship's entire track history